PGT14JT LTFE-LTFJ
Flight info
| Callsign | PGT14JT |
|---|---|
| Flight time | N/A |
| Altitude | 34000 |
| Route | AKBUK G80 OKESA UG80 DUGLA UY371 VUTZO |
| Aircraft | B738/M-SDE2E3FGHIRWXY/LB1 |
Departure
| Time | 2026-04-24 11:35 |
|---|---|
| Airport | Milas Bodrum International Airport (LTFE) |
Arrival
| Time | N/A |
|---|---|
| Airport | Istanbul Sabiha Gökçen International Airport (LTFJ) |
| Time | Latitude | Longitude | Altitude | Speed | Heading |
|---|---|---|---|---|---|
| 2026-04-24 11:04 | 37.24499 | 27.67391 | 30 ft | 0 kts | 197° |
| 2026-04-24 11:26 | 37.24516 | 27.67397 | 30 ft | 4 kts | 197° |
| 2026-04-24 11:26 | 37.24541 | 27.67406 | 30 ft | 4 kts | 184° |
| 2026-04-24 11:26 | 37.24560 | 27.67398 | 30 ft | 4 kts | 115° |
| 2026-04-24 11:26 | 37.24568 | 27.67368 | 30 ft | 2 kts | 107° |
| 2026-04-24 11:27 | 37.24569 | 27.67366 | 30 ft | 0 kts | 107° |
| 2026-04-24 11:30 | 37.24565 | 27.67380 | 30 ft | 3 kts | 107° |
| 2026-04-24 11:30 | 37.24554 | 27.67423 | 30 ft | 7 kts | 107° |
| 2026-04-24 11:30 | 37.24538 | 27.67489 | 30 ft | 8 kts | 106° |
| 2026-04-24 11:30 | 37.24523 | 27.67554 | 30 ft | 8 kts | 107° |
| 2026-04-24 11:31 | 37.24523 | 27.67616 | 30 ft | 7 kts | 53° |
| 2026-04-24 11:31 | 37.24574 | 27.67643 | 30 ft | 9 kts | 17° |
| 2026-04-24 11:31 | 37.24634 | 27.67671 | 32 ft | 9 kts | 35° |
| 2026-04-24 11:31 | 37.24647 | 27.67744 | 32 ft | 10 kts | 104° |
| 2026-04-24 11:32 | 37.24623 | 27.67846 | 31 ft | 15 kts | 106° |
| 2026-04-24 11:32 | 37.24592 | 27.67978 | 29 ft | 14 kts | 107° |
| 2026-04-24 11:32 | 37.24578 | 27.68067 | 29 ft | 8 kts | 73° |
| 2026-04-24 11:32 | 37.24624 | 27.68104 | 29 ft | 8 kts | 16° |
| 2026-04-24 11:33 | 37.24676 | 27.68123 | 29 ft | 8 kts | 16° |
| 2026-04-24 11:33 | 37.24722 | 27.68132 | 29 ft | 6 kts | 339° |
| 2026-04-24 11:33 | 37.24738 | 27.68094 | 29 ft | 0 kts | 287° |
| 2026-04-24 11:34 | 37.24742 | 27.68077 | 30 ft | 10 kts | 287° |
| 2026-04-24 11:34 | 37.24826 | 27.67728 | 30 ft | 76 kts | 286° |
| 2026-04-24 11:34 | 37.25036 | 27.66845 | 29 ft | 133 kts | 287° |
| 2026-04-24 11:34 | 37.25340 | 27.65572 | 216 ft | 161 kts | 287° |
| 2026-04-24 11:35 | 37.25664 | 27.64249 | 917 ft | 158 kts | 285° |
| 2026-04-24 11:35 | 37.25984 | 27.62904 | 1535 ft | 164 kts | 286° |
| 2026-04-24 11:35 | 37.26310 | 27.61528 | 2169 ft | 167 kts | 286° |
| 2026-04-24 11:35 | 37.26657 | 27.60058 | 2519 ft | 189 kts | 285° |
| 2026-04-24 11:36 | 37.27052 | 27.58375 | 2736 ft | 212 kts | 286° |
| 2026-04-24 11:36 | 37.27487 | 27.56511 | 2896 ft | 233 kts | 286° |
| 2026-04-24 11:36 | 37.27968 | 27.54456 | 3182 ft | 254 kts | 286° |
| 2026-04-24 11:36 | 37.28474 | 27.52295 | 3862 ft | 260 kts | 286° |
| 2026-04-24 11:37 | 37.28986 | 27.50092 | 4630 ft | 266 kts | 286° |
| 2026-04-24 11:37 | 37.29537 | 27.47858 | 5530 ft | 270 kts | 293° |
| 2026-04-24 11:37 | 37.30672 | 27.46023 | 6420 ft | 275 kts | 324° |
| 2026-04-24 11:37 | 37.32435 | 27.45107 | 7322 ft | 278 kts | 349° |
| 2026-04-24 11:38 | 37.34379 | 27.44990 | 7807 ft | 282 kts | 1° |
| 2026-04-24 11:38 | 37.36342 | 27.45130 | 7981 ft | 282 kts | 4° |
| 2026-04-24 11:38 | 37.38315 | 27.45304 | 8267 ft | 288 kts | 4° |
| 2026-04-24 11:38 | 37.40324 | 27.45470 | 9180 ft | 290 kts | 2° |
| 2026-04-24 11:39 | 37.42344 | 27.45618 | 10099 ft | 292 kts | 2° |
| 2026-04-24 11:39 | 37.44415 | 27.45754 | 10641 ft | 308 kts | 1° |
| 2026-04-24 11:39 | 37.46649 | 27.45891 | 10826 ft | 335 kts | 1° |
| 2026-04-24 11:39 | 37.49052 | 27.46013 | 11166 ft | 353 kts | 357° |
| 2026-04-24 11:40 | 37.51456 | 27.45362 | 11812 ft | 356 kts | 335° |
| 2026-04-24 11:40 | 37.53699 | 27.44042 | 12684 ft | 357 kts | 332° |
| 2026-04-24 11:40 | 37.55953 | 27.42681 | 13484 ft | 361 kts | 332° |
| 2026-04-24 11:40 | 37.58237 | 27.41322 | 14222 ft | 364 kts | 332° |
| 2026-04-24 11:41 | 37.60542 | 27.39972 | 14964 ft | 367 kts | 331° |
| 2026-04-24 11:41 | 37.62873 | 27.38613 | 15675 ft | 370 kts | 331° |
| 2026-04-24 11:41 | 37.65235 | 27.37282 | 16397 ft | 373 kts | 332° |
| 2026-04-24 11:41 | 37.67627 | 27.35975 | 17115 ft | 376 kts | 332° |
| 2026-04-24 11:42 | 37.70042 | 27.34667 | 17835 ft | 379 kts | 332° |
| 2026-04-24 11:42 | 37.72473 | 27.33351 | 18514 ft | 381 kts | 331° |
| 2026-04-24 11:42 | 37.74889 | 27.32038 | 19076 ft | 385 kts | 331° |
| 2026-04-24 11:42 | 37.77363 | 27.30690 | 19631 ft | 389 kts | 331° |
| 2026-04-24 11:43 | 37.79863 | 27.29322 | 20176 ft | 394 kts | 331° |
| 2026-04-24 11:43 | 37.82392 | 27.27937 | 20712 ft | 398 kts | 330° |
| 2026-04-24 11:43 | 37.84948 | 27.26535 | 21210 ft | 403 kts | 330° |
| 2026-04-24 11:43 | 37.87532 | 27.25116 | 21753 ft | 406 kts | 330° |
| 2026-04-24 11:44 | 37.90137 | 27.23685 | 22300 ft | 409 kts | 330° |
| 2026-04-24 11:44 | 37.92758 | 27.22244 | 22813 ft | 413 kts | 330° |
| 2026-04-24 11:44 | 37.95405 | 27.20788 | 23314 ft | 417 kts | 330° |
| 2026-04-24 11:44 | 37.98075 | 27.19317 | 23731 ft | 420 kts | 330° |
| 2026-04-24 11:45 | 38.00766 | 27.17833 | 24133 ft | 423 kts | 330° |
| 2026-04-24 11:45 | 38.03473 | 27.16344 | 24557 ft | 426 kts | 329° |
| 2026-04-24 11:45 | 38.06204 | 27.14835 | 24909 ft | 430 kts | 329° |
| 2026-04-24 11:45 | 38.08952 | 27.13316 | 25409 ft | 430 kts | 329° |
| 2026-04-24 11:46 | 38.11699 | 27.11798 | 25860 ft | 432 kts | 329° |
| 2026-04-24 11:46 | 38.14470 | 27.10263 | 26167 ft | 437 kts | 328° |
| 2026-04-24 11:46 | 38.17261 | 27.08716 | 26541 ft | 439 kts | 328° |
| 2026-04-24 11:46 | 38.20068 | 27.07160 | 26949 ft | 442 kts | 328° |
| 2026-04-24 11:47 | 38.22898 | 27.05591 | 27298 ft | 444 kts | 328° |
| 2026-04-24 11:47 | 38.25738 | 27.04014 | 27664 ft | 447 kts | 328° |
| 2026-04-24 11:47 | 38.28624 | 27.02482 | 28010 ft | 454 kts | 333° |
| 2026-04-24 11:47 | 38.31735 | 27.01507 | 28434 ft | 467 kts | 345° |
| 2026-04-24 11:48 | 38.34983 | 27.01249 | 29109 ft | 470 kts | 355° |
| 2026-04-24 11:48 | 38.38270 | 27.01657 | 29478 ft | 478 kts | 2° |
| 2026-04-24 11:48 | 38.41584 | 27.02288 | 29716 ft | 484 kts | 3° |
| 2026-04-24 11:48 | 38.44917 | 27.02971 | 29995 ft | 486 kts | 3° |
| 2026-04-24 11:49 | 38.48260 | 27.03656 | 30328 ft | 486 kts | 3° |
| 2026-04-24 11:49 | 38.51597 | 27.04320 | 30802 ft | 482 kts | 4° |
| 2026-04-24 11:49 | 38.54843 | 27.04949 | 31841 ft | 464 kts | 4° |
| 2026-04-24 11:49 | 38.57978 | 27.05541 | 32405 ft | 460 kts | 4° |
| 2026-04-24 11:50 | 38.61141 | 27.06125 | 32806 ft | 458 kts | 4° |
| 2026-04-24 11:50 | 38.64288 | 27.06701 | 33199 ft | 457 kts | 4° |
| 2026-04-24 11:50 | 38.67444 | 27.07278 | 33460 ft | 459 kts | 4° |
| 2026-04-24 11:50 | 38.70605 | 27.07858 | 33740 ft | 460 kts | 4° |
| 2026-04-24 11:51 | 38.73750 | 27.08437 | 33967 ft | 451 kts | 6° |
| 2026-04-24 11:51 | 38.76855 | 27.09013 | 33960 ft | 451 kts | 6° |
| 2026-04-24 11:51 | 38.83094 | 27.10170 | 33981 ft | 456 kts | 6° |
| 2026-04-24 11:52 | 38.89405 | 27.11343 | 33969 ft | 459 kts | 6° |
| 2026-04-24 11:52 | 38.95671 | 27.12511 | 33974 ft | 454 kts | 7° |
| 2026-04-24 11:53 | 39.01871 | 27.13662 | 33977 ft | 449 kts | 6° |
| 2026-04-24 11:53 | 39.08080 | 27.14785 | 33978 ft | 451 kts | 6° |
| 2026-04-24 11:54 | 39.14304 | 27.15906 | 33987 ft | 450 kts | 7° |
| 2026-04-24 11:54 | 39.20431 | 27.17019 | 33965 ft | 441 kts | 7° |
| 2026-04-24 11:55 | 39.26528 | 27.18132 | 33987 ft | 447 kts | 7° |
| 2026-04-24 11:55 | 39.32738 | 27.19259 | 33994 ft | 452 kts | 7° |
| 2026-04-24 11:56 | 39.38855 | 27.20378 | 33974 ft | 442 kts | 6° |
| 2026-04-24 11:56 | 39.44928 | 27.21488 | 33991 ft | 441 kts | 7° |
| 2026-04-24 11:57 | 39.50983 | 27.22722 | 33976 ft | 442 kts | 13° |
| 2026-04-24 11:57 | 39.56858 | 27.25090 | 33994 ft | 443 kts | 18° |
| 2026-04-24 11:58 | 39.62727 | 27.27596 | 33991 ft | 444 kts | 17° |
| 2026-04-24 11:58 | 39.68624 | 27.30021 | 33999 ft | 445 kts | 16° |
| 2026-04-24 11:59 | 39.74532 | 27.32434 | 33983 ft | 446 kts | 16° |
| 2026-04-24 11:59 | 39.80444 | 27.34884 | 33985 ft | 446 kts | 17° |
| 2026-04-24 12:00 | 39.86355 | 27.37344 | 33997 ft | 446 kts | 16° |
| 2026-04-24 12:00 | 39.92262 | 27.39799 | 33997 ft | 445 kts | 16° |
| 2026-04-24 12:01 | 39.98171 | 27.42236 | 33992 ft | 445 kts | 16° |
| 2026-04-24 12:01 | 40.04044 | 27.44649 | 34004 ft | 445 kts | 16° |
| 2026-04-24 12:02 | 40.09941 | 27.47080 | 33989 ft | 444 kts | 16° |
| 2026-04-24 12:02 | 40.15829 | 27.49513 | 33992 ft | 443 kts | 16° |
| 2026-04-24 12:03 | 40.21706 | 27.51947 | 34003 ft | 443 kts | 16° |
| 2026-04-24 12:03 | 40.27575 | 27.54383 | 34000 ft | 442 kts | 16° |
| 2026-04-24 12:04 | 40.33046 | 27.57965 | 34029 ft | 444 kts | 36° |
| 2026-04-24 12:04 | 40.37937 | 27.62932 | 34005 ft | 444 kts | 36° |
| 2026-04-24 12:05 | 40.42873 | 27.67804 | 33995 ft | 443 kts | 35° |
| 2026-04-24 12:05 | 40.47786 | 27.72609 | 33997 ft | 442 kts | 35° |
| 2026-04-24 12:06 | 40.52718 | 27.77448 | 33992 ft | 442 kts | 35° |
| 2026-04-24 12:06 | 40.57641 | 27.82292 | 33995 ft | 441 kts | 35° |
| 2026-04-24 12:07 | 40.62544 | 27.87124 | 33998 ft | 440 kts | 35° |
| 2026-04-24 12:07 | 40.66573 | 27.91214 | 33987 ft | 441 kts | 43° |
| 2026-04-24 12:08 | 40.68415 | 27.94436 | 34007 ft | 444 kts | 60° |
| 2026-04-24 12:08 | 40.69518 | 27.98238 | 33987 ft | 448 kts | 76° |
| 2026-04-24 12:08 | 40.70268 | 28.06405 | 34001 ft | 449 kts | 82° |
| 2026-04-24 12:09 | 40.70560 | 28.10529 | 33485 ft | 456 kts | 83° |
| 2026-04-24 12:09 | 40.70860 | 28.14676 | 32873 ft | 453 kts | 82° |
| 2026-04-24 12:09 | 40.71175 | 28.18808 | 32274 ft | 451 kts | 82° |
| 2026-04-24 12:09 | 40.71500 | 28.22893 | 31817 ft | 446 kts | 82° |
| 2026-04-24 12:10 | 40.71828 | 28.26935 | 31330 ft | 442 kts | 82° |
| 2026-04-24 12:10 | 40.72157 | 28.30949 | 30860 ft | 438 kts | 82° |
| 2026-04-24 12:10 | 40.72483 | 28.34923 | 30403 ft | 434 kts | 81° |
| 2026-04-24 12:11 | 40.73120 | 28.42772 | 29368 ft | 427 kts | 82° |
| 2026-04-24 12:11 | 40.73435 | 28.46666 | 28661 ft | 427 kts | 82° |
| 2026-04-24 12:11 | 40.73747 | 28.50557 | 28027 ft | 426 kts | 82° |
| 2026-04-24 12:11 | 40.74052 | 28.54422 | 27561 ft | 421 kts | 82° |
| 2026-04-24 12:12 | 40.74159 | 28.58259 | 27100 ft | 418 kts | 88° |
| 2026-04-24 12:12 | 40.73998 | 28.63306 | 26439 ft | 414 kts | 91° |
| 2026-04-24 12:12 | 40.73881 | 28.65810 | 26103 ft | 412 kts | 91° |
| 2026-04-24 12:12 | 40.73708 | 28.69570 | 25562 ft | 410 kts | 91° |
| 2026-04-24 12:13 | 40.73556 | 28.73317 | 25042 ft | 408 kts | 91° |
| 2026-04-24 12:13 | 40.73423 | 28.77045 | 24591 ft | 404 kts | 90° |
| 2026-04-24 12:13 | 40.73305 | 28.80728 | 24158 ft | 401 kts | 90° |
| 2026-04-24 12:13 | 40.73192 | 28.84383 | 23714 ft | 397 kts | 90° |
| 2026-04-24 12:14 | 40.73082 | 28.88010 | 23202 ft | 395 kts | 90° |
| 2026-04-24 12:14 | 40.72972 | 28.91612 | 22671 ft | 392 kts | 90° |
| 2026-04-24 12:14 | 40.72861 | 28.95194 | 22145 ft | 390 kts | 90° |
| 2026-04-24 12:14 | 40.72748 | 28.98759 | 21569 ft | 390 kts | 90° |
| 2026-04-24 12:15 | 40.72596 | 29.02324 | 21020 ft | 389 kts | 96° |
| 2026-04-24 12:15 | 40.71974 | 29.05799 | 20545 ft | 389 kts | 106° |
| 2026-04-24 12:15 | 40.71152 | 29.09177 | 20109 ft | 385 kts | 106° |
| 2026-04-24 12:15 | 40.70345 | 29.12556 | 19382 ft | 390 kts | 105° |
| 2026-04-24 12:16 | 40.69565 | 29.16000 | 18706 ft | 394 kts | 105° |
| 2026-04-24 12:16 | 40.68805 | 29.19460 | 18190 ft | 392 kts | 103° |
| 2026-04-24 12:16 | 40.68474 | 29.22965 | 17815 ft | 380 kts | 84° |
| 2026-04-24 12:16 | 40.68738 | 29.26313 | 17682 ft | 367 kts | 82° |
| 2026-04-24 12:17 | 40.69012 | 29.29647 | 17226 ft | 364 kts | 82° |
| 2026-04-24 12:17 | 40.69270 | 29.32964 | 16697 ft | 364 kts | 83° |
| 2026-04-24 12:17 | 40.69516 | 29.36277 | 16219 ft | 362 kts | 83° |
| 2026-04-24 12:17 | 40.69753 | 29.39574 | 15786 ft | 360 kts | 83° |
| 2026-04-24 12:18 | 40.69983 | 29.42843 | 15359 ft | 358 kts | 83° |
| 2026-04-24 12:18 | 40.70211 | 29.46105 | 14900 ft | 356 kts | 84° |
| 2026-04-24 12:18 | 40.70436 | 29.49338 | 14536 ft | 353 kts | 84° |
| 2026-04-24 12:18 | 40.70658 | 29.52549 | 14076 ft | 352 kts | 84° |
| 2026-04-24 12:19 | 40.70879 | 29.55763 | 13599 ft | 351 kts | 84° |
| 2026-04-24 12:19 | 40.71098 | 29.58953 | 13259 ft | 346 kts | 84° |
| 2026-04-24 12:19 | 40.71311 | 29.62077 | 12988 ft | 339 kts | 84° |
| 2026-04-24 12:19 | 40.71519 | 29.65139 | 12720 ft | 332 kts | 84° |
| 2026-04-24 12:20 | 40.71723 | 29.68142 | 12454 ft | 326 kts | 85° |
| 2026-04-24 12:20 | 40.71923 | 29.71093 | 12190 ft | 320 kts | 85° |
| 2026-04-24 12:20 | 40.72115 | 29.73957 | 11936 ft | 315 kts | 85° |
| 2026-04-24 12:20 | 40.72307 | 29.76813 | 11686 ft | 310 kts | 85° |
| 2026-04-24 12:21 | 40.72494 | 29.79624 | 11421 ft | 306 kts | 85° |
| 2026-04-24 12:21 | 40.72679 | 29.82399 | 11169 ft | 302 kts | 85° |
| 2026-04-24 12:21 | 40.72820 | 29.84258 | 10993 ft | 301 kts | 80° |